Latest Weather Observations for Moruya Airport

IDN60801

Issued at 3:02 pm EDT Saturday 21 January 2017 (issued every 30 minutes, with the page automatically refreshed every 10 minutes)

About weather observations | Map of weather stations | Latest weather observations for NSW | Other Formats
Station Details ID: 069148 Name: MORUYA AIRPORT AWS Lat: -35.90 Lon: 150.14 Height: 4.0 m
Data from the previous 72 hours. | See also: Recent months at Moruya Airport
Date/Time
EDT
Temp
°C
App
Temp
°C
Dew
Point
°C
Rel
Hum
%
Delta-T
°C
Wind Press
QNH
hPa
Press
MSL
hPa
Rain since
9am
mm
Dir  Spd
km/h
Gust
km/h
Spd
kts
Gust
kts
21/03:00pm 23.6 20.5 11.6 47 6.8 SE 19 28 10 15 1012.5 1012.4 0.0
21/02:30pm 23.7 20.4 11.7 47 6.8 SE 20 28 11 15 1012.3 1012.2 0.0
21/02:00pm 23.2 19.9 11.6 48 6.5 SE 20 28 11 15 1012.1 1012.0 0.0
21/01:30pm 23.3 19.7 10.7 45 7.0 SE 20 28 11 15 1012.1 1012.0 0.0
21/01:00pm 23.5 20.2 11.5 47 6.7 SE 20 28 11 15 1012.0 1011.9 0.0
21/12:30pm 23.6 20.3 11.0 45 7.0 SE 19 24 10 13 1011.7 1011.6 0.0
21/12:00pm 22.8 19.1 10.3 45 6.9 SE 20 28 11 15 1011.7 1011.6 0.0
21/11:30am 22.9 19.1 9.7 43 7.2 ESE 20 26 11 14 1011.6 1011.5 0.0
21/11:00am 22.7 18.9 9.1 42 7.3 SE 19 22 10 12 1011.5 1011.4 0.0
21/10:30am 22.1 19.0 8.9 43 7.0 ESE 15 20 8 11 1011.5 1011.4 0.0
21/10:00am 23.0 20.6 8.7 40 7.6 SSE 11 20 6 11 1011.3 1011.2 0.0
21/09:30am 21.7 18.7 7.9 41 7.2 SW 13 19 7 10 1011.2 1011.1 0.0
21/09:00am 21.0 17.5 7.3 41 7.0 SSW 15 22 8 12 1011.1 1011.0 1.2
21/08:30am 19.6 17.2 8.6 49 5.7 SW 11 15 6 8 1010.8 1010.7 1.2
21/08:00am 17.8 16.1 9.9 60 4.2 SW 9 11 5 6 1010.5 1010.4 1.2
21/07:30am 16.2 15.4 10.9 71 2.8 WSW 6 9 3 5 1010.2 1010.1 1.2
21/07:00am 12.7 11.6 10.6 87 1.1 W 7 9 4 5 1009.6 1009.5 1.2
21/06:30am 10.9 10.6 8.8 87 1.0 CALM 0 6 0 3 1008.9 1008.8 1.2
21/06:00am 10.8 9.4 8.7 87 1.0 W 6 7 3 4 1008.3 1008.2 1.2
21/05:30am 10.0 8.3 7.4 84 1.2 N 6 7 3 4 1007.8 1007.7 1.2
21/05:00am 11.5 9.1 8.7 83 1.4 SW 11 13 6 7 1006.9 1006.8 1.2
21/04:30am 12.2 11.3 9.2 82 1.5 W 4 7 2 4 1006.3 1006.2 1.2
21/04:00am 12.4 11.5 9.1 80 1.7 WNW 4 7 2 4 1005.8 1005.7 1.2
21/03:30am 13.2 11.9 9.3 77 2.0 W 6 7 3 4 1005.4 1005.3 1.2
21/03:00am 14.5 12.6 9.1 70 2.8 SW 9 11 5 6 1005.2 1005.1 1.2
21/02:30am 15.5 14.2 9.2 66 3.2 SW 6 7 3 4 1005.1 1005.0 1.2
21/02:00am 16.5 14.5 8.5 59 4.1 SW 9 13 5 7 1004.8 1004.7 1.2
21/01:30am 17.3 14.8 8.2 55 4.6 SW 11 15 6 8 1004.5 1004.4 1.2
21/01:00am 18.3 15.4 8.3 52 5.2 SW 13 19 7 10 1004.2 1004.1 1.2
21/12:30am 19.8 15.9 8.5 48 5.9 SSW 19 24 10 13 1003.9 1003.8 1.2
21/12:00am 19.4 16.9 8.4 49 5.7 SSW 11 17 6 9 1003.5 1003.4 1.2
 
Date/Time
EDT
Temp
°C
App
Temp
°C
Dew
Point
°C
Rel
Hum
%
Delta-T
°C
Wind Press
QNH
hPa
Press
MSL
hPa
Rain since
9am
mm
Dir  Spd
km/h
Gust
km/h
Spd
kts
Gust
kts
20/11:30pm 20.2 16.9 8.2 46 6.2 SSW 15 19 8 10 1003.0 1002.9 1.2
20/11:00pm 20.3 17.4 8.3 46 6.3 SSW 13 19 7 10 1002.7 1002.6 1.2
20/10:30pm 21.6 16.2 7.8 41 7.2 SSW 26 37 14 20 1001.6 1001.5 1.2
20/10:16pm 21.9 16.1 8.1 41 7.2 SSW 28 46 15 25 1001.3 1001.2 1.2
20/10:00pm 22.2 15.7 8.3 41 7.4 SSW 32 46 17 25 1000.5 1000.4 1.2
20/09:46pm 22.5 16.6 9.0 42 7.2 SSW 30 48 16 26 1000.2 1000.1 1.2
20/09:30pm 22.5 18.4 10.0 45 6.8 SSW 22 39 12 21 999.5 999.4 1.2
20/09:00pm 22.0 22.9 16.5 71 3.4 SSW 7 11 4 6 998.6 998.5 1.2
20/08:30pm 23.0 23.0 16.3 66 4.1 SW 11 19 6 10 997.6 997.5 1.2
20/08:00pm 22.9 21.4 16.4 67 4.0 S 19 30 10 16 996.7 996.6 1.2
20/07:30pm 22.9 20.7 16.9 69 3.7 SSE 24 37 13 20 995.6 995.6 1.2
20/07:00pm 23.3 21.2 17.1 68 3.8 S 24 39 13 21 994.6 994.6 1.2
20/06:30pm 23.5 21.2 18.4 73 3.2 SSE 28 39 15 21 993.7 993.7 1.2
20/06:00pm 24.2 23.3 19.1 73 3.3 SSE 22 33 12 18 993.1 993.1 1.2
20/05:30pm 24.5 22.4 18.0 67 4.1 S 26 44 14 24 992.7 992.7 1.2
20/05:00pm 24.8 21.3 18.7 69 3.9 S 35 48 19 26 991.9 991.9 1.2
20/04:42pm 25.2 21.9 19.3 70 3.8 S 35 54 19 29 991.9 991.9 1.2
20/04:30pm 25.5 20.5 18.9 67 4.2 S 43 57 23 31 991.9 991.9 1.2
20/04:11pm 26.2 22.9 18.3 61 5.0 S 33 56 18 30 990.8 990.8 1.0
20/04:05pm 26.4 24.9 18.5 62 5.0 SSE 24 46 13 25 990.8 990.8 1.0
20/04:00pm 27.3 28.3 19.4 62 5.1 NW 13 32 7 17 990.5 990.5 1.0
20/03:30pm 31.1 30.7 19.4 49 7.7 NW 20 35 11 19 988.8 988.8 0.8
20/03:00pm 34.0 34.4 18.1 39 10.4 WNW 13 26 7 14 988.5 988.5 0.8
20/02:30pm 33.8 33.7 18.7 40 9.9 NW 17 33 9 18 988.3 988.3 0.8
20/02:00pm 34.4 33.8 18.8 39 10.3 NNW 20 33 11 18 988.6 988.6 0.8
20/01:30pm 33.3 31.8 18.6 41 9.6 NW 24 48 13 26 988.8 988.8 0.8
20/01:24pm 33.4 31.2 18.7 41 9.6 NW 28 48 15 26 988.8 988.8 0.8
20/01:00pm 33.0 32.7 19.5 45 9.0 NW 20 44 11 24 989.1 989.1 0.8
20/12:48pm 31.9 30.1 19.5 47 8.1 NNW 28 48 15 26 989.4 989.4 0.8
20/12:46pm 31.8 30.0 18.7 45 8.5 NNW 26 48 14 26 989.4 989.4 0.8
20/12:30pm 26.8 26.0 19.2 63 4.9 NNE 22 28 12 15 989.9 989.9 0.8
20/12:00pm 25.4 24.0 18.8 67 4.2 N 24 32 13 17 990.6 990.6 0.8
20/11:30am 22.8 22.8 18.1 75 2.9 N 15 20 8 11 992.0 992.0 0.8
20/11:00am 21.0 20.1 17.8 82 2.0 NNE 19 24 10 13 993.0 993.0 0.8
20/10:30am 20.3 20.3 17.3 83 1.8 NNE 13 20 7 11 994.7 994.7 0.8
20/10:00am 19.8 21.4 17.0 84 1.7 NW 4 9 2 5 995.8 995.8 0.8
20/09:31am 19.2 19.6 16.4 84 1.7 NNW 9 13 5 7 996.6 996.5 0.8
20/09:30am 19.3 19.8 16.5 84 1.7 NNW 9 11 5 6 996.7 996.6 0.8
20/09:14am 19.8 20.1 15.9 78 2.3 NW 9 13 5 7 997.4 997.3 0.6
20/09:00am 20.0 20.1 15.6 76 2.6 NNW 9 13 5 7 997.1 997.0 0.0
20/08:30am 19.5 19.2 15.4 77 2.4 NNW 11 17 6 9 997.8 997.7 0.0
20/08:00am 19.4 19.4 15.3 77 2.4 NNW 9 11 5 6 998.7 998.6 0.0
20/07:30am 19.2 19.2 15.1 77 2.4 N 9 11 5 6 999.3 999.2 0.0
20/07:00am 19.3 18.9 15.2 77 2.4 N 11 15 6 8 999.9 999.8 0.0
20/06:30am 19.5 19.1 15.2 76 2.5 N 11 17 6 9 1000.0 999.9 0.0
20/06:00am 19.6 18.8 15.0 75 2.7 N 13 17 7 9 1000.4 1000.3 0.0
20/05:30am 19.6 19.1 14.8 74 2.8 N 11 15 6 8 1000.9 1000.8 0.0
20/05:00am 19.7 19.5 14.7 73 2.9 N 9 15 5 8 1001.8 1001.7 0.0
20/04:30am 19.8 20.0 14.6 72 3.0 N 7 11 4 6 1002.4 1002.3 0.0
20/04:00am 19.9 18.9 14.7 72 3.0 N 13 22 7 12 1003.0 1002.9 0.0
20/03:30am 20.0 18.3 14.6 71 3.1 N 17 24 9 13 1003.7 1003.6 0.0
20/03:00am 20.0 18.3 14.6 71 3.2 N 17 22 9 12 1004.5 1004.4 0.0
20/02:30am 20.2 18.5 14.6 70 3.3 N 17 24 9 13 1005.3 1005.2 0.0
20/02:00am 20.1 18.7 14.5 70 3.3 N 15 22 8 12 1005.8 1005.7 0.0
20/01:30am 19.9 19.2 14.3 70 3.2 N 11 15 6 8 1006.4 1006.3 0.0
20/01:00am 19.8 19.1 14.4 71 3.1 N 11 17 6 9 1007.3 1007.2 0.0
20/12:30am 19.6 18.5 14.4 72 3.0 N 13 19 7 10 1007.9 1007.8 0.0
20/12:00am 19.2 19.3 14.5 74 2.7 NNW 7 13 4 7 1008.6 1008.5 0.0
 
Date/Time
EDT
Temp
°C
App
Temp
°C
Dew
Point
°C
Rel
Hum
%
Delta-T
°C
Wind Press
QNH
hPa
Press
MSL
hPa
Rain since
9am
mm
Dir  Spd
km/h
Gust
km/h
Spd
kts
Gust
kts
19/11:30pm 19.3 19.0 14.3 73 2.9 NNW 9 13 5 7 1009.2 1009.1 0.0
19/11:00pm 19.2 19.2 14.2 73 2.9 N 7 11 4 6 1009.5 1009.4 0.0
19/10:30pm 19.1 18.6 13.9 72 3.0 NNW 9 11 5 6 1009.6 1009.5 0.0
19/10:00pm 19.7 18.9 13.9 69 3.3 N 11 15 6 8 1010.0 1009.9 0.0
19/09:30pm 20.1 19.3 14.0 68 3.5 N 11 17 6 9 1010.1 1010.0 0.0
19/09:00pm 20.4 19.5 13.8 66 3.8 N 11 17 6 9 1010.4 1010.3 0.0
19/08:30pm 20.4 18.7 13.6 65 3.9 N 15 20 8 11 1010.5 1010.4 0.0
19/08:00pm 20.8 19.6 14.0 65 3.9 N 13 17 7 9 1010.4 1010.3 0.0
19/07:30pm 21.1 20.8 14.3 65 4.0 N 9 15 5 8 1010.7 1010.6 0.0
19/07:00pm 21.3 19.9 14.5 65 4.0 NNE 15 20 8 11 1010.8 1010.7 0.0
19/06:30pm 21.4 19.5 14.1 63 4.2 N 17 20 9 11 1011.1 1011.0 0.0
19/06:00pm 21.2 18.7 13.6 62 4.4 NNE 19 26 10 14 1011.4 1011.3 0.0
19/05:30pm 21.1 18.5 13.3 61 4.5 NNE 19 24 10 13 1011.6 1011.5 0.0
19/05:00pm 21.5 18.9 13.2 59 4.8 NNE 19 26 10 14 1011.9 1011.8 0.0
19/04:30pm 21.3 18.3 12.7 58 4.9 NNE 20 26 11 14 1012.3 1012.2 0.0
19/04:00pm 21.5 18.6 12.9 58 4.9 NNE 20 26 11 14 1012.7 1012.6 0.0
19/03:30pm 21.6 18.9 13.0 58 4.9 NE 19 22 10 12 1013.1 1013.0 0.0
19/03:00pm 21.4 19.1 13.1 59 4.7 NE 17 24 9 13 1013.3 1013.2 0.0
19/02:30pm 21.3 18.3 12.7 58 4.9 NE 20 28 11 15 1013.5 1013.4 0.0
19/02:00pm 22.0 18.1 12.0 53 5.6 NE 24 30 13 16 1013.7 1013.6 0.0
19/01:30pm 22.8 20.3 12.4 52 5.9 ENE 17 24 9 13 1013.9 1013.8 0.0
19/01:00pm 22.2 20.5 12.5 54 5.5 E 13 17 7 9 1014.2 1014.1 0.0
19/12:30pm 21.7 20.5 11.7 53 5.6 E 9 15 5 8 1014.7 1014.6 0.0
19/12:00pm 20.9 20.5 11.0 53 5.4 WSW 4 11 2 6 1015.2 1015.1 0.0
19/11:30am 20.3 20.1 10.4 53 5.4 SW 2 7 1 4 1015.3 1015.2 0.0
19/11:00am 19.8 18.5 10.0 53 5.2 SW 7 9 4 5 1015.6 1015.5 0.0
19/10:30am 19.1 18.9 10.4 57 4.7 WNW 2 7 1 4 1015.8 1015.7 0.0
19/10:00am 18.3 18.4 10.2 59 4.3 CALM 0 4 0 2 1016.0 1015.9 0.0
19/09:30am 18.3 17.3 10.4 60 4.2 NNW 6 7 3 4 1016.1 1016.0 0.0
19/09:00am 18.0 16.9 9.9 59 4.3 W 6 9 3 5 1016.2 1016.1 0.0
19/08:30am 17.9 16.1 9.5 58 4.4 WSW 9 11 5 6 1016.1 1016.0 0.0
19/08:00am 17.6 15.8 9.5 59 4.2 WSW 9 11 5 6 1016.0 1015.9 0.0
19/07:30am 17.1 15.2 9.0 59 4.2 WSW 9 11 5 6 1015.8 1015.7 0.0
19/07:00am 16.8 15.3 9.0 60 4.0 WSW 7 13 4 7 1015.6 1015.5 0.0
19/06:30am 16.7 14.6 8.4 58 4.2 W 9 13 5 7 1015.4 1015.3 0.0
19/06:00am 16.5 14.3 7.7 56 4.4 W 9 13 5 7 1015.2 1015.1 0.0
19/05:30am 16.5 13.9 7.7 56 4.4 WSW 11 17 6 9 1015.0 1014.9 0.0
19/05:00am 16.6 14.0 7.8 56 4.4 WSW 11 17 6 9 1015.0 1014.9 0.0
19/04:30am 16.7 14.2 8.4 58 4.2 WSW 11 17 6 9 1015.1 1015.0 0.0
19/04:00am 16.9 14.0 8.3 57 4.4 WSW 13 19 7 10 1015.2 1015.1 0.0
19/03:30am 17.1 13.9 8.5 57 4.4 SW 15 20 8 11 1015.4 1015.3 0.0
19/03:00am 17.4 14.4 9.1 58 4.3 SSW 15 20 8 11 1015.7 1015.6 0.0
19/02:30am 17.7 14.8 9.8 60 4.2 SSW 15 22 8 12 1016.1 1016.0 0.0
19/02:00am 18.0 14.9 10.4 61 4.1 S 17 22 9 12 1016.4 1016.3 0.0
19/01:30am 18.2 14.6 10.6 61 4.1 S 20 28 11 15 1016.5 1016.4 0.0
19/01:00am 18.5 14.6 10.8 61 4.2 S 22 28 12 15 1016.6 1016.5 0.0
19/12:30am 18.8 14.5 10.9 60 4.3 S 24 35 13 19 1016.5 1016.4 0.0
19/12:00am 19.2 14.8 11.7 62 4.1 SSE 26 35 14 19 1016.4 1016.3 0.0
 
Date/Time
EDT
Temp
°C
App
Temp
°C
Dew
Point
°C
Rel
Hum
%
Delta-T
°C
Wind Press
QNH
hPa
Press
MSL
hPa
Rain since
9am
mm
Dir  Spd
km/h
Gust
km/h
Spd
kts
Gust
kts
18/11:30pm 19.5 15.7 12.3 63 4.0 SSE 24 33 13 18 1016.3 1016.2 0.0
18/11:00pm 19.8 16.0 12.3 62 4.2 S 24 35 13 19 1016.1 1016.0 0.0
18/10:30pm 20.0 16.3 12.7 63 4.1 S 24 37 13 20 1015.8 1015.7 0.0
18/10:00pm 20.2 16.9 12.9 63 4.1 S 22 30 12 16 1015.4 1015.3 0.0
18/09:30pm 20.4 15.9 12.6 61 4.4 S 28 41 15 22 1014.7 1014.6 0.0
18/09:00pm 20.8 16.3 13.7 64 4.1 SSE 30 43 16 23 1014.0 1013.9 0.0
18/08:30pm 21.0 17.0 12.9 60 4.6 S 26 35 14 19 1013.3 1013.2 0.0
18/08:00pm 21.3 17.5 13.7 62 4.4 S 26 35 14 19 1012.5 1012.4 0.0
18/07:30pm 21.7 18.3 13.6 60 4.7 S 24 37 13 20 1011.6 1011.5 0.0
18/07:00pm 21.8 17.8 12.9 57 5.1 S 26 35 14 19 1011.1 1011.0 0.0
18/06:30pm 21.9 17.7 13.5 59 4.8 SSE 28 41 15 22 1010.6 1010.5 0.0
18/06:00pm 21.9 18.2 13.8 60 4.7 S 26 39 14 21 1010.4 1010.3 0.0
18/05:30pm 21.7 17.6 13.9 61 4.5 SSE 28 37 15 20 1010.2 1010.1 0.0
18/05:00pm 22.0 17.3 14.4 62 4.5 S 32 39 17 21 1009.8 1009.7 0.0
18/04:30pm 22.1 18.2 14.5 62 4.5 S 28 43 15 23 1009.5 1009.4 0.0
18/04:00pm 22.1 18.9 15.2 65 4.1 SSE 26 39 14 21 1009.1 1009.0 0.0
18/03:30pm 21.8 19.0 15.4 67 3.8 SSE 24 32 13 17 1009.2 1009.1 0.0

Other Formats:

Comma delimited format used in spreadsheet applications
http://www.bom.gov.au/fwo/IDN60801/IDN60801.95937.axf

JavaScript Object Notation format (JSON) in row-major order
http://www.bom.gov.au/fwo/IDN60801/IDN60801.95937.json